Menalon — SXCH — position and weather

sailwx.info

Track history (hours):
 
Tides and Currents Weather Stations Pressure Air Temp Water Temp Dewpoint Dewpoint Depression Visibility Wind Speed Wind Dir Waves Ship Positions

Menalon

Last reported at 2016-Jun-30 11:33 UTC. Time now 2016-Jun-30 12:23 UTC.
Position N 37°52' E 023°32'.

Length 83 m; draft 3 m.

Type: Ship (hazmat cat C). MMSI: 239741000.

Date/timePositionNaut miles runAvg speedWind from/ knotsBaromVisibWave heightAir tempDewpointWater temp
2016-Jun-30 11:33N 37°52' E 023°32'0 0.4
2016-Jun-30 10:34N 37°53' E 023°33'0 0.0
2016-Jun-30 09:34N 37°53' E 023°33'5 5.3
2016-Jun-30 08:34N 37°57' E 023°36'0 0.0
2016-Jun-30 07:33N 37°57' E 023°36'0 0.0
2016-Jun-30 06:34N 37°57' E 023°36'0 0.4
2016-Jun-30 05:33N 37°57' E 023°36'2 2.1
2016-Jun-30 04:34N 37°56' E 023°34'0 0.0
2016-Jun-30 03:33N 37°56' E 023°34'0 0.0
2016-Jun-30 02:34N 37°56' E 023°34'0 0.0
2016-Jun-30 01:34N 37°56' E 023°34'0 0.0
2016-Jun-30 00:33N 37°56' E 023°34'0 0.1
2016-Jun-29 23:34N 37°56' E 023°34'0 0.0
2016-Jun-29 22:33N 37°56' E 023°34'0 0.0
2016-Jun-29 21:34N 37°56' E 023°34'0 0.0
2016-Jun-29 20:34N 37°56' E 023°34'0 0.0
2016-Jun-29 19:34N 37°56' E 023°34'0 0.0
2016-Jun-29 18:33N 37°56' E 023°34'0 0.0
2016-Jun-29 17:33N 37°56' E 023°34'0 0.0
2016-Jun-29 16:34N 37°56' E 023°34'0 0.0
2016-Jun-29 15:33N 37°56' E 023°34'0 0.0
2016-Jun-29 14:33N 37°56' E 023°34'0 0.1
2016-Jun-29 13:33N 37°56' E 023°34'0 0.0
2016-Jun-29 12:34N 37°56' E 023°34'0 0.0
2016-Jun-29 11:34N 37°56' E 023°34'0 0.2
2016-Jun-29 10:33N 37°55' E 023°34'5 5.1
2016-Jun-29 09:33N 37°51' E 023°31'2 2.3
2016-Jun-29 08:34N 37°53' E 023°32'0 0.3
2016-Jun-29 07:33N 37°53' E 023°32'0 0.0
2016-Jun-29 06:34N 37°53' E 023°32'0 0.0
2016-Jun-29 05:33N 37°53' E 023°32'4 4.0
2016-Jun-29 04:33N 37°57' E 023°35'5 5.3
2016-Jun-29 03:33N 38°02' E 023°36'0 0.0
2016-Jun-29 02:33N 38°02' E 023°36'0 0.0
2016-Jun-29 01:33N 38°02' E 023°36'0 0.0
2016-Jun-29 00:33N 38°02' E 023°36'0 0.0
2016-Jun-28 23:33N 38°02' E 023°36'0 0.0
2016-Jun-28 22:33N 38°02' E 023°36'0 0.0
2016-Jun-28 21:33N 38°02' E 023°36'0 0.0
2016-Jun-28 20:33N 38°02' E 023°36'0 0.0
2016-Jun-28 19:33N 38°02' E 023°36'0 0.0
2016-Jun-28 18:33N 38°02' E 023°36'0 0.0
2016-Jun-28 17:33N 38°02' E 023°36'0 0.0
2016-Jun-28 16:33N 38°02' E 023°36'1 0.7
2016-Jun-28 15:33N 38°02' E 023°35'0 0.0
2016-Jun-28 14:33N 38°02' E 023°35'1 0.5
2016-Jun-28 13:33N 38°01' E 023°35'5 5.4
2016-Jun-28 12:33N 37°56' E 023°34'0 0.0
2016-Jun-28 11:34N 37°56' E 023°34'0 0.0
2016-Jun-28 10:33N 37°56' E 023°34'0 0.2
2016-Jun-28 09:34N 37°56' E 023°34'0 0.1
2016-Jun-28 08:33N 37°56' E 023°34'0 0.0
2016-Jun-28 07:33N 37°56' E 023°34'0 0.0
2016-Jun-28 06:33N 37°56' E 023°34'0 0.0
2016-Jun-28 04:34N 37°56' E 023°34'0 0.0
2016-Jun-28 03:33N 37°56' E 023°34'0 0.0
2016-Jun-28 02:34N 37°56' E 023°34'0 0.0
2016-Jun-28 01:33N 37°56' E 023°34'0 0.0
2016-Jun-28 00:33N 37°56' E 023°34'0 0.0
2016-Jun-27 23:33N 37°56' E 023°34'0 0.0
2016-Jun-27 22:34N 37°56' E 023°34'0 0.0
2016-Jun-27 21:33N 37°56' E 023°34'0 0.1
2016-Jun-27 20:33N 37°56' E 023°34'0 0.0
2016-Jun-27 19:33N 37°56' E 023°34'0 0.0
2016-Jun-27 18:33N 37°56' E 023°34'0 0.0
2016-Jun-27 17:34N 37°56' E 023°34'0 0.0
2016-Jun-27 16:33N 37°56' E 023°34'0 0.0
2016-Jun-27 15:34N 37°56' E 023°34'0 0.0
2016-Jun-27 14:33N 37°56' E 023°34'0 0.0
2016-Jun-27 13:33N 37°56' E 023°34'0 0.0
2016-Jun-27 12:34N 37°56' E 023°34'0 0.0
2016-Jun-27 11:34N 37°56' E 023°34'0 0.0
2016-Jun-27 10:33N 37°56' E 023°34'0 0.0
2016-Jun-27 09:34N 37°56' E 023°34'0 0.0
2016-Jun-27 08:34N 37°56' E 023°34'0 0.0
2016-Jun-27 07:34N 37°56' E 023°34'0 0.0
2016-Jun-27 06:33N 37°56' E 023°34'0 0.1
2016-Jun-27 05:34N 37°56' E 023°34'0 0.0
2016-Jun-27 04:34N 37°56' E 023°34'0 0.0
2016-Jun-27 03:33N 37°56' E 023°34'0 0.0
2016-Jun-27 02:34N 37°56' E 023°34'0 0.0
2016-Jun-27 01:33N 37°56' E 023°34'0 0.0
2016-Jun-27 00:33N 37°56' E 023°34'0 0.1
2016-Jun-26 23:33N 37°56' E 023°34'0 0.0
2016-Jun-26 22:33N 37°56' E 023°34'0 0.0
2016-Jun-26 21:34N 37°56' E 023°34'0 0.0
2016-Jun-26 20:34N 37°56' E 023°34'0 0.0
2016-Jun-26 19:34N 37°56' E 023°34'0 0.0
2016-Jun-26 18:34N 37°56' E 023°34'0 0.0
2016-Jun-26 17:34N 37°56' E 023°34'0 0.0
2016-Jun-26 16:33N 37°56' E 023°34'0 0.0
2016-Jun-26 15:33N 37°56' E 023°34'0 0.0
2016-Jun-26 14:33N 37°56' E 023°34'0 0.0
2016-Jun-26 13:33N 37°56' E 023°34'0 0.0
2016-Jun-26 12:33N 37°56' E 023°34'0 0.1
2016-Jun-26 11:34N 37°56' E 023°34'0 0.0
2016-Jun-26 10:34N 37°56' E 023°34'0 0.0
2016-Jun-26 09:34N 37°56' E 023°34'0 0.0
2016-Jun-26 08:33N 37°56' E 023°34'0 0.0
2016-Jun-26 07:34N 37°56' E 023°34'0 0.0
2016-Jun-26 06:33N 37°56' E 023°34'0 0.0
2016-Jun-26 05:34N 37°56' E 023°34'0 0.0
2016-Jun-26 04:34N 37°56' E 023°34'0 0.1
2016-Jun-26 03:33N 37°56' E 023°34'6 6.2
2016-Jun-26 02:33N 37°50' E 023°31'0 0.1
2016-Jun-26 01:33N 37°50' E 023°31'0 0.0
2016-Jun-26 00:34N 37°50' E 023°31'7 7.1
2016-Jun-25 23:34N 37°56' E 023°35'1 1.0
2016-Jun-25 22:33N 37°57' E 023°35'0 0.0
2016-Jun-25 21:34N 37°57' E 023°35'0 0.0
2016-Jun-25 20:34N 37°57' E 023°35'0 0.0
2016-Jun-25 19:33N 37°57' E 023°35'1 1.2
2016-Jun-25 18:33N 37°56' E 023°34'1 0.8
2016-Jun-25 17:34N 37°56' E 023°34'0 0.0
2016-Jun-25 16:33N 37°56' E 023°34'0 0.0
2016-Jun-25 15:33N 37°56' E 023°34'0 0.0
2016-Jun-25 14:33N 37°56' E 023°34'0 0.1
2016-Jun-25 13:33N 37°56' E 023°34'0 0.0
2016-Jun-25 12:33N 37°56' E 023°34'0 0.0
2016-Jun-25 11:33N 37°56' E 023°34'0 0.0
2016-Jun-25 10:34N 37°56' E 023°34'0 0.0
2016-Jun-25 09:33N 37°56' E 023°34'0 0.0
2016-Jun-25 08:34N 37°56' E 023°34'0 0.0
2016-Jun-25 07:33N 37°56' E 023°34'0 0.0
2016-Jun-25 06:33N 37°56' E 023°34'0 0.0
2016-Jun-25 05:34N 37°56' E 023°34'0 0.0
2016-Jun-25 04:34N 37°56' E 023°34'0 0.0
2016-Jun-25 03:34N 37°56' E 023°34'0 0.0
2016-Jun-25 02:33N 37°56' E 023°34'0 0.0
2016-Jun-25 01:34N 37°56' E 023°34'0 0.0
2016-Jun-25 00:33N 37°56' E 023°34'0 0.0
2016-Jun-24 23:33N 37°56' E 023°34'0 0.0
2016-Jun-24 22:33N 37°56' E 023°34'0 0.0
2016-Jun-24 21:34N 37°56' E 023°34'0 0.0
2016-Jun-24 20:34N 37°56' E 023°34'0 0.0
2016-Jun-24 19:34N 37°56' E 023°34'0 0.0
2016-Jun-24 18:33N 37°56' E 023°34'3 3.5
2016-Jun-24 17:33N 37°52' E 023°33'0 0.0
2016-Jun-24 16:34N 37°52' E 023°33'0 0.0
2016-Jun-24 15:34N 37°52' E 023°33'0 0.0
2016-Jun-24 14:33N 37°52' E 023°33'0 0.0
2016-Jun-24 13:34N 37°52' E 023°33'2 1.7
2016-Jun-24 12:33N 37°51' E 023°32'0 0.0
2016-Jun-24 11:33N 37°51' E 023°32'0 0.0
2016-Jun-24 10:33N 37°51' E 023°32'0 0.0
2016-Jun-24 09:33N 37°51' E 023°32'0 0.0
2016-Jun-24 08:33N 37°51' E 023°32'6 6.1
2016-Jun-24 07:33N 37°57' E 023°35'5 1.6
2016-Jun-24 04:33N 38°01' E 023°32'0 0.4
2016-Jun-24 03:34N 38°01' E 023°33'0 0.0
2016-Jun-24 02:33N 38°01' E 023°33'0 0.0
2016-Jun-24 01:33N 38°01' E 023°33'0 0.0
2016-Jun-24 00:33N 38°01' E 023°33'0 0.0
2016-Jun-23 23:34N 38°01' E 023°33'0 0.4
2016-Jun-23 22:33N 38°01' E 023°33'2 2.3
2016-Jun-23 21:33N 38°02' E 023°36'0 0.0
2016-Jun-23 20:30N 38°02' E 023°36'0 0.0
2016-Jun-23 19:33N 38°02' E 023°36'0 0.0
2016-Jun-23 18:33N 38°02' E 023°36'0 0.0
2016-Jun-23 17:33N 38°02' E 023°36'1 0.6
2016-Jun-23 16:33N 38°02' E 023°35'0 0.0
2016-Jun-23 15:34N 38°02' E 023°35'0 0.0
2016-Jun-23 14:33N 38°02' E 023°35'0 0.0
2016-Jun-23 13:33N 38°02' E 023°35'0 0.0
2016-Jun-23 12:33N 38°02' E 023°35'0 0.1
2016-Jun-23 11:33N 38°02' E 023°35'3 2.8
2016-Jun-23 10:34N 38°01' E 023°31'0 0.0
2016-Jun-23 09:33N 38°01' E 023°32'0 0.0
2016-Jun-23 08:33N 38°01' E 023°32'0 0.0
2016-Jun-23 07:34N 38°01' E 023°32'0 0.0
2016-Jun-23 05:33N 38°01' E 023°32'0 0.0
2016-Jun-23 04:33N 38°01' E 023°32'0 0.0
2016-Jun-23 03:33N 38°01' E 023°32'0 0.4
2016-Jun-23 02:34N 38°01' E 023°31'0 0.0
2016-Jun-23 01:33N 38°01' E 023°31'0 0.0
2016-Jun-23 00:33N 38°01' E 023°31'0 0.0
2016-Jun-22 23:34N 38°01' E 023°31'1 0.6
2016-Jun-22 22:33N 38°01' E 023°32'0 0.0
2016-Jun-22 21:34N 38°01' E 023°32'0 0.0
2016-Jun-22 20:34N 38°01' E 023°32'1 0.7
2016-Jun-22 19:33N 38°01' E 023°33'2 2.5
2016-Jun-22 18:33N 38°02' E 023°36'0 0.0
2016-Jun-22 17:33N 38°02' E 023°36'0 0.0
2016-Jun-22 16:33N 38°02' E 023°36'0 0.0
2016-Jun-22 15:33N 38°02' E 023°36'0 0.0
2016-Jun-22 14:33N 38°02' E 023°36'0 0.0
2016-Jun-22 13:33N 38°02' E 023°36'0 0.0
2016-Jun-22 12:34N 38°02' E 023°36'0 0.0
2016-Jun-22 11:34N 38°02' E 023°36'0 0.0
2016-Jun-22 10:33N 38°02' E 023°36'0 0.0
2016-Jun-22 09:34N 38°02' E 023°36'0 0.0
2016-Jun-22 08:33N 38°02' E 023°36'1 0.6
2016-Jun-22 07:33N 38°01' E 023°35'0 0.0
2016-Jun-22 06:34N 38°01' E 023°35'0 0.0
2016-Jun-22 05:33N 38°01' E 023°35'0 0.0
2016-Jun-22 04:33N 38°01' E 023°35'0 0.2
2016-Jun-22 03:33N 38°01' E 023°35'8 8.2
2016-Jun-22 02:33N 37°58' E 023°25'6 6.4
2016-Jun-22 01:33N 37°52' E 023°30'0 0.2
2016-Jun-22 00:33N 37°52' E 023°30'0 0.0
2016-Jun-21 23:33N 37°52' E 023°30'0 0.0
2016-Jun-21 22:34N 37°52' E 023°30'0 0.0
2016-Jun-21 21:33N 37°52' E 023°30'0 0.0
2016-Jun-21 20:33N 37°52' E 023°30'0 0.0
2016-Jun-21 19:34N 37°52' E 023°30'0 0.0
2016-Jun-21 18:34N 37°52' E 023°30'0 0.0
2016-Jun-21 17:33N 37°52' E 023°30'0 0.0
2016-Jun-21 16:33N 37°52' E 023°30'0 0.0
2016-Jun-21 15:33N 37°52' E 023°30'0 0.0
2016-Jun-21 14:34N 37°52' E 023°30'0 0.0
2016-Jun-21 13:33N 37°52' E 023°30'0 0.0
2016-Jun-21 12:34N 37°52' E 023°30'0 0.0
2016-Jun-21 11:33N 37°52' E 023°30'0 0.0
2016-Jun-21 10:34N 37°52' E 023°30'0 0.0
2016-Jun-21 09:33N 37°52' E 023°30'1 0.9
2016-Jun-21 08:33N 37°51' E 023°29'6 5.9
2016-Jun-21 07:33N 37°56' E 023°34'0 0.0
2016-Jun-21 05:34N 37°56' E 023°34'0 0.0
2016-Jun-21 04:33N 37°56' E 023°34'0 0.0
2016-Jun-21 03:33N 37°56' E 023°34'0 0.0
2016-Jun-21 02:33N 37°56' E 023°34'0 0.0
2016-Jun-21 01:33N 37°56' E 023°34'0 0.0
2016-Jun-21 00:33N 37°56' E 023°34'0 0.0
2016-Jun-20 23:33N 37°56' E 023°34'0 0.0
2016-Jun-20 22:33N 37°56' E 023°34'0 0.0
2016-Jun-20 21:33N 37°56' E 023°34'0 0.0
2016-Jun-20 20:33N 37°56' E 023°34'0 0.0
2016-Jun-20 19:34N 37°56' E 023°34'0 0.0
2016-Jun-20 18:34N 37°56' E 023°34'0 0.0
2016-Jun-20 17:33N 37°56' E 023°34'0 0.0
2016-Jun-20 16:34N 37°56' E 023°34'0 0.0
2016-Jun-20 15:34N 37°56' E 023°34'0 0.0
2016-Jun-20 14:34N 37°56' E 023°34'0 0.0
2016-Jun-20 13:34N 37°56' E 023°34'0 0.0
2016-Jun-20 12:34N 37°56' E 023°34'0 0.0
2016-Jun-20 11:33N 37°56' E 023°34'  
Track history (hours):
 
Tides and Currents Weather Stations Pressure Air Temp Water Temp Dewpoint Dewpoint Depression Visibility Wind Speed Wind Dir Waves Ship Positions

Menalon

Last reported at 2016-Jun-30 11:33 UTC. Time now 2016-Jun-30 12:23 UTC.
Position N 37°52' E 023°32'.

Length 83 m; draft 3 m.

Type: Ship (hazmat cat C). MMSI: 239741000.

Date/timePositionNaut miles runAvg speedWind from/ knotsBaromVisibWave heightAir tempDewpointWater temp
2016-Jun-30 11:33N 37°52' E 023°32'0 0.4
2016-Jun-30 10:34N 37°53' E 023°33'0 0.0
2016-Jun-30 09:34N 37°53' E 023°33'5 5.3
2016-Jun-30 08:34N 37°57' E 023°36'0 0.0
2016-Jun-30 07:33N 37°57' E 023°36'0 0.0
2016-Jun-30 06:34N 37°57' E 023°36'0 0.4
2016-Jun-30 05:33N 37°57' E 023°36'2 2.1
2016-Jun-30 04:34N 37°56' E 023°34'0 0.0
2016-Jun-30 03:33N 37°56' E 023°34'0 0.0
2016-Jun-30 02:34N 37°56' E 023°34'0 0.0
2016-Jun-30 01:34N 37°56' E 023°34'0 0.0
2016-Jun-30 00:33N 37°56' E 023°34'0 0.1
2016-Jun-29 23:34N 37°56' E 023°34'0 0.0
2016-Jun-29 22:33N 37°56' E 023°34'0 0.0
2016-Jun-29 21:34N 37°56' E 023°34'0 0.0
2016-Jun-29 20:34N 37°56' E 023°34'0 0.0
2016-Jun-29 19:34N 37°56' E 023°34'0 0.0
2016-Jun-29 18:33N 37°56' E 023°34'0 0.0
2016-Jun-29 17:33N 37°56' E 023°34'0 0.0
2016-Jun-29 16:34N 37°56' E 023°34'0 0.0
2016-Jun-29 15:33N 37°56' E 023°34'0 0.0
2016-Jun-29 14:33N 37°56' E 023°34'0 0.1
2016-Jun-29 13:33N 37°56' E 023°34'0 0.0
2016-Jun-29 12:34N 37°56' E 023°34'0 0.0
2016-Jun-29 11:34N 37°56' E 023°34'0 0.2
2016-Jun-29 10:33N 37°55' E 023°34'5 5.1
2016-Jun-29 09:33N 37°51' E 023°31'2 2.3
2016-Jun-29 08:34N 37°53' E 023°32'0 0.3
2016-Jun-29 07:33N 37°53' E 023°32'0 0.0
2016-Jun-29 06:34N 37°53' E 023°32'0 0.0
2016-Jun-29 05:33N 37°53' E 023°32'4 4.0
2016-Jun-29 04:33N 37°57' E 023°35'5 5.3
2016-Jun-29 03:33N 38°02' E 023°36'0 0.0
2016-Jun-29 02:33N 38°02' E 023°36'0 0.0
2016-Jun-29 01:33N 38°02' E 023°36'0 0.0
2016-Jun-29 00:33N 38°02' E 023°36'0 0.0
2016-Jun-28 23:33N 38°02' E 023°36'0 0.0
2016-Jun-28 22:33N 38°02' E 023°36'0 0.0
2016-Jun-28 21:33N 38°02' E 023°36'0 0.0
2016-Jun-28 20:33N 38°02' E 023°36'0 0.0
2016-Jun-28 19:33N 38°02' E 023°36'0 0.0
2016-Jun-28 18:33N 38°02' E 023°36'0 0.0
2016-Jun-28 17:33N 38°02' E 023°36'0 0.0
2016-Jun-28 16:33N 38°02' E 023°36'1 0.7
2016-Jun-28 15:33N 38°02' E 023°35'0 0.0
2016-Jun-28 14:33N 38°02' E 023°35'1 0.5
2016-Jun-28 13:33N 38°01' E 023°35'5 5.4
2016-Jun-28 12:33N 37°56' E 023°34'0 0.0
2016-Jun-28 11:34N 37°56' E 023°34'0 0.0
2016-Jun-28 10:33N 37°56' E 023°34'0 0.2
2016-Jun-28 09:34N 37°56' E 023°34'0 0.1
2016-Jun-28 08:33N 37°56' E 023°34'0 0.0
2016-Jun-28 07:33N 37°56' E 023°34'0 0.0
2016-Jun-28 06:33N 37°56' E 023°34'0 0.0
2016-Jun-28 04:34N 37°56' E 023°34'0 0.0
2016-Jun-28 03:33N 37°56' E 023°34'0 0.0
2016-Jun-28 02:34N 37°56' E 023°34'0 0.0
2016-Jun-28 01:33N 37°56' E 023°34'0 0.0
2016-Jun-28 00:33N 37°56' E 023°34'0 0.0
2016-Jun-27 23:33N 37°56' E 023°34'0 0.0
2016-Jun-27 22:34N 37°56' E 023°34'0 0.0
2016-Jun-27 21:33N 37°56' E 023°34'0 0.1
2016-Jun-27 20:33N 37°56' E 023°34'0 0.0
2016-Jun-27 19:33N 37°56' E 023°34'0 0.0
2016-Jun-27 18:33N 37°56' E 023°34'0 0.0
2016-Jun-27 17:34N 37°56' E 023°34'0 0.0
2016-Jun-27 16:33N 37°56' E 023°34'0 0.0
2016-Jun-27 15:34N 37°56' E 023°34'0 0.0
2016-Jun-27 14:33N 37°56' E 023°34'0 0.0
2016-Jun-27 13:33N 37°56' E 023°34'0 0.0
2016-Jun-27 12:34N 37°56' E 023°34'0 0.0
2016-Jun-27 11:34N 37°56' E 023°34'0 0.0
2016-Jun-27 10:33N 37°56' E 023°34'0 0.0
2016-Jun-27 09:34N 37°56' E 023°34'0 0.0
2016-Jun-27 08:34N 37°56' E 023°34'0 0.0
2016-Jun-27 07:34N 37°56' E 023°34'0 0.0
2016-Jun-27 06:33N 37°56' E 023°34'0 0.1
2016-Jun-27 05:34N 37°56' E 023°34'0 0.0
2016-Jun-27 04:34N 37°56' E 023°34'0 0.0
2016-Jun-27 03:33N 37°56' E 023°34'0 0.0
2016-Jun-27 02:34N 37°56' E 023°34'0 0.0
2016-Jun-27 01:33N 37°56' E 023°34'0 0.0
2016-Jun-27 00:33N 37°56' E 023°34'0 0.1
2016-Jun-26 23:33N 37°56' E 023°34'0 0.0
2016-Jun-26 22:33N 37°56' E 023°34'0 0.0
2016-Jun-26 21:34N 37°56' E 023°34'0 0.0
2016-Jun-26 20:34N 37°56' E 023°34'0 0.0
2016-Jun-26 19:34N 37°56' E 023°34'0 0.0
2016-Jun-26 18:34N 37°56' E 023°34'0 0.0
2016-Jun-26 17:34N 37°56' E 023°34'0 0.0
2016-Jun-26 16:33N 37°56' E 023°34'0 0.0
2016-Jun-26 15:33N 37°56' E 023°34'0 0.0
2016-Jun-26 14:33N 37°56' E 023°34'0 0.0
2016-Jun-26 13:33N 37°56' E 023°34'0 0.0
2016-Jun-26 12:33N 37°56' E 023°34'0 0.1
2016-Jun-26 11:34N 37°56' E 023°34'0 0.0
2016-Jun-26 10:34N 37°56' E 023°34'0 0.0
2016-Jun-26 09:34N 37°56' E 023°34'0 0.0
2016-Jun-26 08:33N 37°56' E 023°34'0 0.0
2016-Jun-26 07:34N 37°56' E 023°34'0 0.0
2016-Jun-26 06:33N 37°56' E 023°34'0 0.0
2016-Jun-26 05:34N 37°56' E 023°34'0 0.0
2016-Jun-26 04:34N 37°56' E 023°34'0 0.1
2016-Jun-26 03:33N 37°56' E 023°34'6 6.2
2016-Jun-26 02:33N 37°50' E 023°31'0 0.1
2016-Jun-26 01:33N 37°50' E 023°31'0 0.0
2016-Jun-26 00:34N 37°50' E 023°31'7 7.1
2016-Jun-25 23:34N 37°56' E 023°35'1 1.0
2016-Jun-25 22:33N 37°57' E 023°35'0 0.0
2016-Jun-25 21:34N 37°57' E 023°35'0 0.0
2016-Jun-25 20:34N 37°57' E 023°35'0 0.0
2016-Jun-25 19:33N 37°57' E 023°35'1 1.2
2016-Jun-25 18:33N 37°56' E 023°34'1 0.8
2016-Jun-25 17:34N 37°56' E 023°34'0 0.0
2016-Jun-25 16:33N 37°56' E 023°34'0 0.0
2016-Jun-25 15:33N 37°56' E 023°34'0 0.0
2016-Jun-25 14:33N 37°56' E 023°34'0 0.1
2016-Jun-25 13:33N 37°56' E 023°34'0 0.0
2016-Jun-25 12:33N 37°56' E 023°34'0 0.0
2016-Jun-25 11:33N 37°56' E 023°34'0 0.0
2016-Jun-25 10:34N 37°56' E 023°34'0 0.0
2016-Jun-25 09:33N 37°56' E 023°34'0 0.0
2016-Jun-25 08:34N 37°56' E 023°34'0 0.0
2016-Jun-25 07:33N 37°56' E 023°34'0 0.0
2016-Jun-25 06:33N 37°56' E 023°34'0 0.0
2016-Jun-25 05:34N 37°56' E 023°34'0 0.0
2016-Jun-25 04:34N 37°56' E 023°34'0 0.0
2016-Jun-25 03:34N 37°56' E 023°34'0 0.0
2016-Jun-25 02:33N 37°56' E 023°34'0 0.0
2016-Jun-25 01:34N 37°56' E 023°34'0 0.0
2016-Jun-25 00:33N 37°56' E 023°34'0 0.0
2016-Jun-24 23:33N 37°56' E 023°34'0 0.0
2016-Jun-24 22:33N 37°56' E 023°34'0 0.0
2016-Jun-24 21:34N 37°56' E 023°34'0 0.0
2016-Jun-24 20:34N 37°56' E 023°34'0 0.0
2016-Jun-24 19:34N 37°56' E 023°34'0 0.0
2016-Jun-24 18:33N 37°56' E 023°34'3 3.5
2016-Jun-24 17:33N 37°52' E 023°33'0 0.0
2016-Jun-24 16:34N 37°52' E 023°33'0 0.0
2016-Jun-24 15:34N 37°52' E 023°33'0 0.0
2016-Jun-24 14:33N 37°52' E 023°33'0 0.0
2016-Jun-24 13:34N 37°52' E 023°33'2 1.7
2016-Jun-24 12:33N 37°51' E 023°32'0 0.0
2016-Jun-24 11:33N 37°51' E 023°32'0 0.0
2016-Jun-24 10:33N 37°51' E 023°32'0 0.0
2016-Jun-24 09:33N 37°51' E 023°32'0 0.0
2016-Jun-24 08:33N 37°51' E 023°32'6 6.1
2016-Jun-24 07:33N 37°57' E 023°35'5 1.6
2016-Jun-24 04:33N 38°01' E 023°32'0 0.4
2016-Jun-24 03:34N 38°01' E 023°33'0 0.0
2016-Jun-24 02:33N 38°01' E 023°33'0 0.0
2016-Jun-24 01:33N 38°01' E 023°33'0 0.0
2016-Jun-24 00:33N 38°01' E 023°33'0 0.0
2016-Jun-23 23:34N 38°01' E 023°33'0 0.4
2016-Jun-23 22:33N 38°01' E 023°33'2 2.3
2016-Jun-23 21:33N 38°02' E 023°36'0 0.0
2016-Jun-23 20:30N 38°02' E 023°36'0 0.0
2016-Jun-23 19:33N 38°02' E 023°36'0 0.0
2016-Jun-23 18:33N 38°02' E 023°36'0 0.0
2016-Jun-23 17:33N 38°02' E 023°36'1 0.6
2016-Jun-23 16:33N 38°02' E 023°35'0 0.0
2016-Jun-23 15:34N 38°02' E 023°35'0 0.0
2016-Jun-23 14:33N 38°02' E 023°35'0 0.0
2016-Jun-23 13:33N 38°02' E 023°35'0 0.0
2016-Jun-23 12:33N 38°02' E 023°35'0 0.1
2016-Jun-23 11:33N 38°02' E 023°35'3 2.8
2016-Jun-23 10:34N 38°01' E 023°31'0 0.0
2016-Jun-23 09:33N 38°01' E 023°32'0 0.0
2016-Jun-23 08:33N 38°01' E 023°32'0 0.0
2016-Jun-23 07:34N 38°01' E 023°32'0 0.0
2016-Jun-23 05:33N 38°01' E 023°32'0 0.0
2016-Jun-23 04:33N 38°01' E 023°32'0 0.0
2016-Jun-23 03:33N 38°01' E 023°32'0 0.4
2016-Jun-23 02:34N 38°01' E 023°31'0 0.0
2016-Jun-23 01:33N 38°01' E 023°31'0 0.0
2016-Jun-23 00:33N 38°01' E 023°31'0 0.0
2016-Jun-22 23:34N 38°01' E 023°31'1 0.6
2016-Jun-22 22:33N 38°01' E 023°32'0 0.0
2016-Jun-22 21:34N 38°01' E 023°32'0 0.0
2016-Jun-22 20:34N 38°01' E 023°32'1 0.7
2016-Jun-22 19:33N 38°01' E 023°33'2 2.5
2016-Jun-22 18:33N 38°02' E 023°36'0 0.0
2016-Jun-22 17:33N 38°02' E 023°36'0 0.0
2016-Jun-22 16:33N 38°02' E 023°36'0 0.0
2016-Jun-22 15:33N 38°02' E 023°36'0 0.0
2016-Jun-22 14:33N 38°02' E 023°36'0 0.0
2016-Jun-22 13:33N 38°02' E 023°36'0 0.0
2016-Jun-22 12:34N 38°02' E 023°36'0 0.0
2016-Jun-22 11:34N 38°02' E 023°36'0 0.0
2016-Jun-22 10:33N 38°02' E 023°36'0 0.0
2016-Jun-22 09:34N 38°02' E 023°36'0 0.0
2016-Jun-22 08:33N 38°02' E 023°36'1 0.6
2016-Jun-22 07:33N 38°01' E 023°35'0 0.0
2016-Jun-22 06:34N 38°01' E 023°35'0 0.0
2016-Jun-22 05:33N 38°01' E 023°35'0 0.0
2016-Jun-22 04:33N 38°01' E 023°35'0 0.2
2016-Jun-22 03:33N 38°01' E 023°35'8 8.2
2016-Jun-22 02:33N 37°58' E 023°25'6 6.4
2016-Jun-22 01:33N 37°52' E 023°30'0 0.2
2016-Jun-22 00:33N 37°52' E 023°30'0 0.0
2016-Jun-21 23:33N 37°52' E 023°30'0 0.0
2016-Jun-21 22:34N 37°52' E 023°30'0 0.0
2016-Jun-21 21:33N 37°52' E 023°30'0 0.0
2016-Jun-21 20:33N 37°52' E 023°30'0 0.0
2016-Jun-21 19:34N 37°52' E 023°30'0 0.0
2016-Jun-21 18:34N 37°52' E 023°30'0 0.0
2016-Jun-21 17:33N 37°52' E 023°30'0 0.0
2016-Jun-21 16:33N 37°52' E 023°30'0 0.0
2016-Jun-21 15:33N 37°52' E 023°30'0 0.0
2016-Jun-21 14:34N 37°52' E 023°30'0 0.0
2016-Jun-21 13:33N 37°52' E 023°30'0 0.0
2016-Jun-21 12:34N 37°52' E 023°30'0 0.0
2016-Jun-21 11:33N 37°52' E 023°30'0 0.0
2016-Jun-21 10:34N 37°52' E 023°30'0 0.0
2016-Jun-21 09:33N 37°52' E 023°30'1 0.9
2016-Jun-21 08:33N 37°51' E 023°29'6 5.9
2016-Jun-21 07:33N 37°56' E 023°34'0 0.0
2016-Jun-21 05:34N 37°56' E 023°34'0 0.0
2016-Jun-21 04:33N 37°56' E 023°34'0 0.0
2016-Jun-21 03:33N 37°56' E 023°34'0 0.0
2016-Jun-21 02:33N 37°56' E 023°34'0 0.0
2016-Jun-21 01:33N 37°56' E 023°34'0 0.0
2016-Jun-21 00:33N 37°56' E 023°34'0 0.0
2016-Jun-20 23:33N 37°56' E 023°34'0 0.0
2016-Jun-20 22:33N 37°56' E 023°34'0 0.0
2016-Jun-20 21:33N 37°56' E 023°34'0 0.0
2016-Jun-20 20:33N 37°56' E 023°34'0 0.0
2016-Jun-20 19:34N 37°56' E 023°34'0 0.0
2016-Jun-20 18:34N 37°56' E 023°34'0 0.0
2016-Jun-20 17:33N 37°56' E 023°34'0 0.0
2016-Jun-20 16:34N 37°56' E 023°34'0 0.0
2016-Jun-20 15:34N 37°56' E 023°34'0 0.0
2016-Jun-20 14:34N 37°56' E 023°34'0 0.0
2016-Jun-20 13:34N 37°56' E 023°34'0 0.0
2016-Jun-20 12:34N 37°56' E 023°34'0 0.0
2016-Jun-20 11:33N 37°56' E 023°34'  

Dump ship's entire track history